Nearby METAR Reports

 

KBVO - Bartlesville, Oklahoma, USA
Distance from station: WNW 10mi, 16km
Updated: Mon, 20-May-2019 9:53am CDT
Clear
Clear
 Wind from E
Wind: E 14 mph , 22 km/h, Gust: 23 mph , 37 km/h
Temperature: 64°F , 18°C
Dew Point: 54°F , 12°C
Humidity: 68%
Barometer: 29.95 inHg , 1014.2 hPa
Clouds: Clear
Visibility: 10 miles , 16 km
2019/05/20 14:53 KBVO 201453Z AUTO 08012G20KT 10SM CLR 18/12 A2995 RMK AO2 SLP135 T01830122 58017
KCFV - Coffeyville, Kansas, USA
Distance from station: NNE 31mi, 49km
Updated: Mon, 20-May-2019 9:52am CDT
Clear
Clear
 Wind from ENE
Wind: ENE 16 mph , 26 km/h, Gust: 23 mph , 37 km/h
Temperature: 64°F , 18°C
Dew Point: 52°F , 11°C
Humidity: 64%
Barometer: 29.97 inHg , 1014.9 hPa
Clouds: Clear
Visibility: 10 miles , 16 km
2019/05/20 14:52 KCFV 201452Z AUTO 07014G20KT 10SM CLR 18/11 A2997 RMK AO2 SLP145 T01780106 58014
 
KIDP - Independence, Kansas, USA
Distance from station: N 32mi, 52km
Updated: Mon, 20-May-2019 10:35am CDT
Partly cloudy
Partly cloudy
 Wind from ENE
Wind: ENE 14 mph , 22 km/h
Temperature: 61°F , 16°C
Dew Point: 50°F , 10°C
Humidity: 68%
Barometer: 29.96 inHg , 1014.6 hPa
Clouds: Partly cloudy
Visibility: 10 miles , 16 km
Cloud details: Partly cloudy 4000 ft
Partly cloudy 7000 ft
2019/05/20 15:35 KIDP 201535Z AUTO 07012KT 10SM SCT040 SCT070 16/10 A2996 RMK AO2 LTG DSNT S AND SW T01620105
KGCM - Claremore, Oklahoma, USA
Distance from station: SE 35mi, 56km
Updated: Mon, 20-May-2019 10:35am CDT
Mostly cloudy
Mostly cloudy
 Wind from E
Wind: E 10 mph , 17 km/h
Temperature: 64°F , 18°C
Dew Point: 55°F , 13°C
Humidity: 73%
Barometer: 29.93 inHg , 1013.5 hPa
Clouds: Mostly cloudy
Visibility: 10 miles , 16 km
Cloud details: Mostly cloudy 3700 ft
2019/05/20 15:35 KGCM 201535Z AUTO 08009KT 10SM BKN037 18/13 A2993 RMK AO2
 
KTUL - Tulsa, Oklahoma, USA
Distance from station: S 35mi, 56km
Updated: Mon, 20-May-2019 10:35am CDT
Overcast
Overcast
 Wind from NE
Wind: NE 12 mph , 19 km/h
Temperature: 63°F , 17°C
Dew Point: 57°F , 14°C
Humidity: 83%
Barometer: 29.86 inHg , 1011.2 hPa
Clouds: Overcast
Visibility: 10 miles , 16 km
Cloud details: Mostly cloudy 2900 ft
Overcast 3800 ft
2019/05/20 15:35 KTUL 201535Z 04010KT 10SM BKN029 OVC038 17/14 A2986 RMK AO2 LTG DSNT SW-N OCNL LTGICCC DSNT SW-W CB DSNT SW-W MOV NE P0007 T01720144
KRVS - Tulsa, Oklahoma, USA
Distance from station: S 46mi, 74km
Updated: Mon, 20-May-2019 10:37am CDT
Nearby thunderstorm, Mostly cloudy
Nearby thunderstorm, Mostly cloudy
 Wind from ENE
Wind: ENE 10 mph , 17 km/h
Temperature: 64°F , 18°C
Dew Point: 57°F , 14°C
Humidity: 78%
Barometer: 29.83 inHg , 1010.2 hPa
Summary: Nearby Thunderstorm
Clouds: Mostly cloudy
Visibility: 10 miles , 16 km
Cloud details: Partly cloudy 2500 ft
Mostly cloudy 3400 ft
2019/05/20 15:37 KRVS 201537Z 06009KT 10SM VCTS SCT025 BKN034 18/14 A2983 RMK AO2 LTG DSNT SW-N RAB03E27 PRESFR P0000 T01780144
 
KPPF - Parsons, Kansas, USA
Distance from station: NNE 48mi, 76km
Updated: Mon, 20-May-2019 9:52am CDT
Clear
Clear
 Wind from ENE
Wind: ENE 8 mph , 13 km/h, Gust: 22 mph , 35 km/h
Temperature: 63°F , 17°C
Dew Point: 48°F , 9°C
Humidity: 59%
Barometer: 30.00 inHg , 1015.9 hPa
Clouds: Clear
Visibility: 10 miles , 16 km
2019/05/20 14:52 KPPF 201452Z AUTO 07007G19KT 040V110 10SM CLR 17/09 A3000 RMK AO2 SLP156 T01670094 58014
KGMJ - Grove, Oklahoma, USA
Distance from station: E 63mi, 101km
Updated: Mon, 20-May-2019 10:35am CDT
Clear
Clear
 Wind from E
Wind: E 9 mph , 15 km/h, Gust: 18 mph , 30 km/h
Temperature: 68°F , 20°C
Dew Point: 54°F , 12°C
Humidity: 60%
Barometer: 29.97 inHg , 1014.9 hPa
Clouds: Clear
Visibility: 10 miles , 16 km
2019/05/20 15:35 KGMJ 201535Z AUTO 09008G16KT 10SM CLR 20/12 A2997 RMK AO2 LTG DSNT W
 
KPNC - Ponca City, Oklahoma, USA
Distance from station: W 69mi, 111km
Updated: Mon, 20-May-2019 10:37am CDT
Thunderstorm rain, Overcast
Thunderstorm rain, Overcast
 Wind from ESE
Wind: ESE 17 mph , 28 km/h, Gust: 28 mph , 44 km/h
Temperature: 59°F , 15°C
Dew Point: 54°F , 12°C
Humidity: 82%
Barometer: 29.91 inHg , 1012.9 hPa
Summary: Thunderstorm Rain
Clouds: Overcast
Visibility: 1 3/4 miles , 2.8 km
Cloud details: Few Clouds 2000 ft
Mostly cloudy 3700 ft
Overcast 11000 ft
2019/05/20 15:37 KPNC 201537Z AUTO 11015G24KT 1 3/4SM TSRA FEW020 BKN037 OVC110 15/12 A2991 RMK AO2 PK WND 08029/1519 LTG DSNT ALQDS RAB19 TSB33 PRESRR P0018 T01500117
KCNU - Chanute, Kansas, USA
Distance from station: NNE 69mi, 112km
Updated: Mon, 20-May-2019 9:52am CDT
Clear
Clear
 Wind from ENE
Wind: ENE 15 mph , 24 km/h
Temperature: 59°F , 15°C
Dew Point: 45°F , 7°C
Humidity: 59%
Barometer: 30.02 inHg , 1016.6 hPa
Clouds: Clear
Visibility: 10 miles , 16 km
2019/05/20 14:52 KCNU 201452Z AUTO 07013KT 10SM CLR 15/07 A3002 RMK AO2 SLP162 T01500072 58010